Latest Coastal Weather Observations for Neptune Island

IDT60701

Issued at 7:32 pm EST Wednesday 6 May 2026 (issued every 10 minutes, with the page automatically refreshed every 10 minutes)

About coastal observations | Map of coastal stations | Coastal observations for TAS | Marine services | Other Formats
Station Details ID: 018115 Name: NEPTUNE ISLAND Lat: -35.34 Lon: 136.12 Height: 32.0 m
Data from the previous 72 hours. | See also: Recent months at Neptune Island
Date/Time
EST
Wind Sea
Height
m
Swell Vis
km
Cloud Weather Temp
°C
Press
MSL
hPa
Rain since
9am
mm
Dir  Spd
kts
Gust
kts
Height
m
Period
s
Dir
06/07:30pm SSW 24 29 - - - - - - - 14.9 1026.2 0.2
06/07:00pm S 26 34 - - - - - - - 14.9 1025.7 0.2
06/06:30pm S 24 30 - - - - - - - 14.8 1025.3 0.2
06/06:00pm S 27 32 - - - - - - - 15.0 1024.8 0.2
06/05:30pm S 27 32 - - - - - - - 15.5 1024.2 0.2
06/05:00pm SSW 25 33 - - - - - - - 15.5 1024.0 0.2
06/04:30pm SSW 27 33 - - - - - - - 15.8 1023.8 0.2
06/04:00pm SSW 27 33 - - - - - - - 15.8 1023.4 0.2
06/03:30pm S 26 31 - - - - - - Recent precip. 15.5 1023.1 0.2
06/03:00pm SSW 26 31 - - - - - - - 15.8 1022.9 0.0
06/02:30pm SW 22 26 - - - - - - - 17.9 1022.6 0.0
06/02:00pm SW 21 25 - - - - - - - 17.5 1022.7 0.0
06/01:30pm SW 20 24 - - - - - - - 17.8 1022.8 0.0
06/01:00pm SW 20 23 - - - - - - - 17.1 1023.2 0.0
06/12:30pm SW 21 25 - - - - - - - 17.0 1023.5 0.0
06/12:00pm SW 20 24 - - - - - - - 17.4 1023.6 0.0
06/11:30am SW 20 24 - - - - - - - 16.9 1023.5 0.0
06/11:00am SW 21 24 - - - - - - - 17.0 1023.4 0.0
06/10:30am SW 22 25 - - - - - - - 17.0 1023.4 0.0
06/10:00am SW 20 25 - - - - - - - 16.3 1023.3 0.0
06/09:30am SW 19 22 - - - - - - - 16.6 1023.1 0.8
06/09:00am WSW 23 27 - - - - - - - 15.7 1022.8 0.8
06/08:30am SW 20 23 - - - - - - - 15.9 1022.4 0.8
06/08:00am SW 19 23 - - - - - - - 15.3 1022.3 0.8
06/07:30am SW 19 22 - - - - - - - 15.0 1022.2 0.8
06/07:00am WSW 24 28 - - - - - - - 15.7 1021.9 0.4
06/06:30am W 18 20 - - - - - - - 16.4 1021.8 0.2
06/06:00am W 15 19 - - - - - - - 16.4 1021.9 0.2
06/05:30am W 16 19 - - - - - - - 16.0 1021.9 0.2
06/05:00am W 17 20 - - - - - - - 16.0 1021.8 0.2
06/04:30am W 14 17 - - - - - - - 15.9 1021.9 0.2
06/04:00am WSW 15 18 - - - - - - - 16.0 1022.0 0.2
06/03:30am W 15 17 - - - - - - - 15.8 1022.1 0.2
06/03:00am WNW 12 17 - - - - - - - 15.4 1022.3 0.2
06/02:30am W 16 18 - - - - - - - 15.9 1022.5 0.2
06/02:00am W 13 16 - - - - - - - 15.8 1022.7 0.2
06/01:30am W 13 15 - - - - - - - 15.8 1022.8 0.2
06/01:00am W 13 14 - - - - - - - 15.8 1022.9 0.2
06/12:30am WNW 11 13 - - - - - - - 15.7 1023.1 0.2
06/12:00am W 17 21 - - - - - - - 14.7 1023.4 0.2
 
Date/Time
EST
Wind Sea
Height
m
Swell Vis
km
Cloud Weather Temp
°C
Press
MSL
hPa
Rain since
9am
mm
Dir  Spd
kts
Gust
kts
Height
m
Period
s
Dir
05/11:41pm WSW 16 21 - - - - - - - 15.5 1023.4 0.2
05/11:30pm WSW 8 11 - - - - - - - 15.4 1023.5 0.2
05/11:00pm W 14 20 - - - - - - - 15.9 1023.6 0.2
05/10:30pm WNW 10 13 - - - - - - - 15.8 1023.9 0.2
05/10:00pm WNW 13 17 - - - - - - - 15.4 1023.8 0.2
05/09:30pm W 12 15 - - - - - - Recent precip. 15.5 1023.8 0.2
05/09:00pm W 11 14 - - - - - - - 15.6 1023.7 0.2
05/08:30pm WSW 15 19 - - - - - - - 15.3 1023.7 0.0
05/08:00pm WSW 12 17 - - - - - - - 15.9 1023.8 0.0
05/07:30pm W 12 14 - - - - - - - 16.3 1023.6 0.0
05/07:00pm W 11 14 - - - - - - - 16.0 1023.6 0.0
05/06:30pm WSW 16 19 - - - - - - - 15.7 1023.2 0.0
05/06:00pm W 11 13 - - - - - - - 16.5 1023.1 0.0
05/05:30pm W 12 15 - - - - - - - 16.4 1023.0 0.0
05/05:00pm W 11 14 - - - - - - - 17.1 1023.0 0.0
05/04:30pm W 9 12 - - - - - - - 16.9 1022.9 0.0
05/04:00pm W 11 13 - - - - - - - 17.6 1022.9 0.0
05/03:30pm W 9 13 - - - - - - - 17.5 1022.8 0.0
05/03:00pm W 8 11 - - - - - - - 17.5 1022.7 0.0
05/02:30pm WSW 9 12 - - - - - - - 17.6 1022.8 0.0
05/02:00pm WSW 8 10 - - - - - - - 17.6 1023.1 0.0
05/01:30pm SW 10 11 - - - - - - - 17.4 1023.3 0.0
05/01:00pm SW 10 14 - - - - - - - 17.2 1023.5 0.0
05/12:30pm SW 13 15 - - - - - - - 17.1 1023.8 0.0
05/12:00pm SW 8 11 - - - - - - - 17.4 1023.9 0.0
05/11:30am SSW 11 14 - - - - - - - 17.2 1023.8 0.0
05/11:00am SW 10 15 - - - - - - - 16.9 1023.7 0.0
05/10:30am SW 7 8 - - - - - - - 16.4 1023.7 0.0
05/10:00am SW 7 9 - - - - - - - 15.8 1023.6 0.0
05/09:30am SW 6 8 - - - - - - - 15.8 1023.3 2.0
05/09:00am SSW 6 8 - - - - - - - 14.9 1023.0 2.0
05/08:30am SSW 5 6 - - - - - - - 14.4 1022.7 2.0
05/08:00am SSW 3 4 - - - - - - - 14.1 1022.5 2.0
05/07:30am SW 8 11 - - - - - - - 14.6 1022.2 1.8
05/07:00am WSW 12 14 - - - - - - - 14.2 1021.9 1.6
05/06:30am SW 10 12 - - - - - - Recent precip. 14.5 1021.7 1.4
05/06:00am WSW 12 14 - - - - - - - 14.5 1021.6 1.4
05/05:30am WSW 14 17 - - - - - - - 14.9 1021.4 1.2
05/05:00am SSW 10 14 - - - - - - - 15.4 1021.2 1.2
05/04:30am SSW 10 13 - - - - - - - 15.3 1021.2 1.2
05/04:00am SSW 12 16 - - - - - - - 15.2 1021.1 1.2
05/03:30am SSW 15 19 - - - - - - - 15.0 1021.2 1.2
05/03:00am SSW 16 19 - - - - - - - 14.9 1021.3 1.2
05/02:30am SSW 14 18 - - - - - - - 14.7 1021.3 1.2
05/02:00am SSW 15 21 - - - - - - - 14.5 1021.3 1.2
05/01:30am SW 20 25 - - - - - - - 14.4 1021.2 1.2
05/01:00am SW 19 23 - - - - - - - 14.9 1021.0 1.2
05/12:30am SW 20 24 - - - - - - Recent precip. 14.6 1020.9 1.2
05/12:00am SW 22 25 - - - - - - - 14.6 1020.8 1.2
 
Date/Time
EST
Wind Sea
Height
m
Swell Vis
km
Cloud Weather Temp
°C
Press
MSL
hPa
Rain since
9am
mm
Dir  Spd
kts
Gust
kts
Height
m
Period
s
Dir
04/11:30pm SSW 17 19 - - - - - - - 14.6 1020.9 0.6
04/11:00pm SSW 16 19 - - - - - - - 14.5 1020.9 0.6
04/10:30pm SW 20 25 - - - - - - - 14.1 1020.7 0.6
04/10:00pm SW 15 19 - - - - - - - 14.8 1020.5 0.2
04/09:30pm SW 15 20 - - - - - - Rain 15.1 1020.2 0.2
04/09:00pm SW 20 25 - - - - - - - 15.1 1019.7 0.0
04/08:30pm SSW 18 22 - - - - - - - 15.0 1019.4 0.0
04/08:00pm SSW 17 22 - - - - - - - 15.1 1019.2 0.0
04/07:30pm SSW 17 22 - - - - - - - 15.1 1018.7 0.0
04/07:00pm SSW 21 23 - - - - - - - 15.7 1018.2 0.0
04/06:30pm SSW 21 26 - - - - - - - 15.5 1017.7 0.0
04/06:00pm SSW 19 23 - - - - - - - 16.0 1017.3 0.0
04/05:30pm SW 19 23 - - - - - - - 16.5 1017.0 0.0
04/05:00pm SW 20 24 - - - - - - - 16.6 1016.6 0.0
04/04:30pm SW 19 23 - - - - - - - 16.5 1016.5 0.0
04/04:00pm SW 19 23 - - - - - - - 16.8 1016.2 0.0
04/03:30pm SW 17 22 - - - - - - - 16.7 1016.0 0.0
04/03:00pm WSW 21 25 - - - - - - - 16.2 1015.7 0.0
04/02:30pm SW 21 24 - - - - - - - 17.3 1015.4 0.0
04/02:00pm SW 19 22 - - - - - - - 17.6 1015.4 0.0
04/01:30pm SW 20 22 - - - - - - - 17.4 1015.4 0.0
04/01:00pm SW 19 23 - - - - - - - 17.3 1015.4 0.0
04/12:30pm SW 21 24 - - - - - - - 17.0 1015.5 0.0
04/12:00pm SW 19 23 - - - - - - - 17.1 1015.7 0.0
04/11:30am SW 21 25 - - - - - - - 17.1 1015.5 0.0
04/11:00am SW 24 28 - - - - - - - 16.3 1015.3 0.0
04/10:30am SW 26 29 - - - - - - - 16.4 1014.9 0.0
04/10:00am SW 21 25 - - - - - - - 16.4 1014.7 0.0
04/09:30am SW 24 29 - - - - - - - 16.1 1014.4 1.2
04/09:00am SW 24 28 - - - - - - - 16.1 1014.1 1.2
04/08:30am SW 25 28 - - - - - - - 15.8 1013.4 1.2
04/08:00am SW 23 27 - - - - - - - 16.2 1012.8 1.2
04/07:30am SW 24 28 - - - - - - - 16.1 1012.3 1.2
04/07:00am SW 27 31 - - - - - - - 16.0 1011.8 1.2
04/06:30am SW 27 33 - - - - - - - 16.0 1011.6 1.2
04/06:00am SW 28 34 - - - - - - - 16.0 1011.2 1.2
04/05:30am SW 27 32 - - - - - - - 15.4 1010.9 1.2
04/05:00am SW 28 36 - - - - - - - 15.5 1010.7 1.2
04/04:30am SW 28 33 - - - - - - - 15.6 1010.4 1.2
04/04:00am WSW 27 37 - - - - - - - 15.1 1010.4 1.2
04/03:54am WSW 26 37 - - - - - - - 15.8 1010.3 1.2
04/03:30am WSW 28 34 - - - - - - - 15.6 1010.3 1.2
04/03:00am WSW 28 33 - - - - - - - 16.0 1010.2 1.2
04/02:30am WSW 28 33 - - - - - - - 15.9 1010.1 1.2
04/02:00am SW 29 39 - - - - - - - 15.9 1010.0 1.2
04/01:50am WSW 28 38 - - - - - - - 15.7 1009.9 1.2
04/01:30am SW 29 35 - - - - - - - 15.6 1009.8 1.2
04/01:00am WSW 31 35 - - - - - - - 15.6 1009.6 1.2
04/12:30am WSW 30 35 - - - - - - Recent precip. 15.8 1009.6 1.2
04/12:00am WSW 28 34 - - - - - - - 15.6 1009.7 0.8
 
Date/Time
EST
Wind Sea
Height
m
Swell Vis
km
Cloud Weather Temp
°C
Press
MSL
hPa
Rain since
9am
mm
Dir  Spd
kts
Gust
kts
Height
m
Period
s
Dir
03/11:30pm W 32 42 - - - - - - - 15.5 1009.6 0.8
03/11:29pm W 31 41 - - - - - - - 15.9 1009.5 0.8
03/11:00pm W 32 38 - - - - - - - 15.7 1009.7 0.8
03/10:42pm W 29 39 - - - - - - - 15.8 1009.7 0.8
03/10:30pm W 32 40 - - - - - - - 15.3 1009.9 0.8
03/10:20pm W 31 41 - - - - - - - 15.7 1009.4 0.8
03/10:00pm W 31 37 - - - - - - - 15.5 1009.4 0.8
03/09:30pm W 30 36 - - - - - - Recent precip. 15.3 1009.3 0.8
03/09:00pm W 31 46 - - - - - - - 14.6 1009.2 0.8
03/08:58pm W 31 46 - - - - - - - 15.3 1008.7 0.4
03/08:30pm W 32 39 - - - - - - - 15.5 1008.8 0.4
03/08:00pm W 32 38 - - - - - - - 15.3 1008.7 0.4
03/07:49pm W 28 38 - - - - - - - 15.3 1008.6 0.4

Other formats

Comma delimited format used in spreadsheet applications
http://www.bom.gov.au/fwo/IDT60701/IDT60701.94804.axf

JavaScript Object Notation format (JSON) in row-major order
http://www.bom.gov.au/fwo/IDT60701/IDT60701.94804.json

Data quality

Most of these data are generated automatically and are frequently updated. Quality checks on data are not normally performed. It is possible for incorrect values to appear. Refer to information at About Latest Weather Observations and please check the disclaimer before using these data.